Latest Weather Observations for Brisbane Airport

IDQ60901

Issued at 10:11 pm EST Thursday 16 August 2018 (issued every 10 minutes, with the page automatically refreshed every 10 minutes)

About weather observations | Map of Brisbane area stations | Latest observations for Brisbane area | Other Formats
Station Details ID: 040842 Name: BRISBANE AERO Lat: -27.39 Lon: 153.13 Height: 4.51 m
Data from the previous 72 hours. | See also: Recent months at Brisbane Airport
Date/Time
EST
Temp
°C
App
Temp
°C
Dew
Point
°C
Rel
Hum
%
Delta-T
°C
Wind Press
QNH
hPa
Press
MSL
hPa
Rain since
9am
mm
Dir  Spd
km/h
Gust
km/h
Spd
kts
Gust
kts
16/10:00pm 13.6 13.1 12.7 94 0.5 NNE 7 9 4 5 1013.0 1013.0 0.0
16/09:30pm 16.8 16.5 12.6 76 2.3 NNW 6 7 3 4 1013.1 1013.1 0.0
16/09:00pm 16.1 16.3 14.3 89 1.0 NNW 6 7 3 4 1012.9 1012.9 0.0
16/08:30pm 16.4 16.2 14.7 90 1.0 NNE 9 13 5 7 1012.7 1012.7 0.0
16/08:00pm 16.3 15.4 14.9 91 0.8 N 13 17 7 9 1012.4 1012.4 0.0
16/07:30pm 17.3 15.8 15.2 87 1.2 N 17 20 9 11 1012.4 1012.4 0.0
16/07:00pm 17.6 16.3 15.7 89 1.1 N 17 22 9 12 1012.2 1012.2 0.0
16/06:30pm 18.0 16.1 15.8 87 1.3 N 20 24 11 13 1011.8 1011.8 0.0
16/06:00pm 18.2 15.8 15.5 84 1.6 NNE 22 30 12 16 1011.5 1011.5 0.0
16/05:30pm 18.9 16.8 15.1 78 2.2 NNE 20 26 11 14 1011.2 1011.2 0.0
16/05:00pm 20.0 18.1 15.1 73 2.9 NNE 19 26 10 14 1010.9 1010.9 0.0
16/04:30pm 21.5 18.9 13.7 61 4.5 NNE 20 26 11 14 1010.8 1010.8 0.0
16/04:00pm 22.7 19.8 12.9 54 5.6 NNE 20 26 11 14 1010.8 1010.8 0.0
16/03:30pm 24.0 20.6 11.1 44 7.2 NNE 20 26 11 14 1010.7 1010.7 0.0
16/03:00pm 24.8 21.1 9.4 37 8.4 NNE 19 22 10 12 1010.8 1010.8 0.0
16/02:30pm 25.2 21.6 10.0 38 8.4 NNE 19 24 10 13 1010.8 1010.8 0.0
16/02:00pm 24.5 20.9 9.7 39 8.1 NNE 19 30 10 16 1011.2 1011.2 0.0
16/01:30pm 24.1 21.5 12.0 46 6.9 NNE 17 22 9 12 1011.7 1011.7 0.0
16/01:00pm 23.2 20.8 12.5 51 6.1 NE 17 22 9 12 1012.2 1012.2 0.0
16/12:30pm 22.8 19.3 10.2 44 6.9 NNE 19 26 10 14 1012.8 1012.8 0.0
16/12:00pm 22.6 19.9 11.7 50 6.1 NE 17 20 9 11 1013.3 1013.3 0.0
16/11:30am 23.6 20.8 8.4 37 8.1 NNE 13 15 7 8 1013.8 1013.8 0.0
16/11:00am 22.7 20.3 8.6 40 7.5 NNE 11 15 6 8 1014.4 1014.4 0.0
16/10:30am 21.2 18.8 8.7 44 6.6 N 11 15 6 8 1015.0 1015.0 0.0
16/10:00am 20.6 18.0 7.6 43 6.7 NNW 11 17 6 9 1015.4 1015.4 0.0
16/09:30am 19.7 16.6 7.3 44 6.3 NNW 13 17 7 9 1015.7 1015.7 0.0
16/09:00am 18.1 15.9 7.9 51 5.2 N 9 13 5 7 1015.9 1015.9 0.4
16/08:30am 16.4 14.7 8.3 58 4.1 NNW 7 9 4 5 1016.0 1016.0 0.4
16/08:00am 14.5 13.3 10.3 76 2.2 W 7 7 4 4 1016.0 1016.0 0.4
16/07:30am 13.2 11.4 9.5 78 1.9 W 9 11 5 6 1015.9 1015.9 0.4
16/07:00am 11.4 9.6 7.9 79 1.7 WSW 7 9 4 5 1015.7 1015.7 0.4
16/06:30am 9.3 8.2 6.7 84 1.2 WNW 2 7 1 4 1015.5 1015.5 0.4
16/06:00am 9.3 7.7 6.3 81 1.4 WNW 4 7 2 4 1015.4 1015.4 0.4
16/05:30am 10.3 8.6 7.4 82 1.4 WNW 6 9 3 5 1015.2 1015.2 0.4
16/05:00am 11.1 8.2 6.4 73 2.2 NW 11 15 6 8 1015.0 1015.0 0.4
16/04:30am 10.2 8.1 6.6 78 1.7 NW 7 11 4 6 1014.8 1014.8 0.4
16/04:00am 10.9 8.9 6.2 73 2.2 WNW 6 9 3 5 1014.8 1014.8 0.4
16/03:30am 9.7 6.6 7.2 84 1.2 SW 13 15 7 8 1014.9 1014.9 0.4
16/03:00am 10.8 10.0 8.3 84 1.2 NNW 2 9 1 5 1014.8 1014.8 0.4
16/02:30am 10.8 8.2 9.2 90 0.8 N 13 19 7 10 1015.0 1015.0 0.4
16/02:00am 12.2 9.5 10.3 88 1.0 NNW 15 17 8 9 1015.4 1015.4 0.4
16/01:30am 12.8 10.1 10.3 85 1.3 NW 15 17 8 9 1015.6 1015.6 0.4
16/01:00am 12.9 10.1 11.4 91 0.8 NNW 17 20 9 11 1015.9 1015.9 0.4
16/12:30am 12.2 10.8 10.9 92 0.7 NW 9 15 5 8 1016.0 1016.0 0.4
16/12:00am 13.5 11.0 11.2 86 1.2 NNW 15 17 8 9 1016.1 1016.1 0.4
 
Date/Time
EST
Temp
°C
App
Temp
°C
Dew
Point
°C
Rel
Hum
%
Delta-T
°C
Wind Press
QNH
hPa
Press
MSL
hPa
Rain since
9am
mm
Dir  Spd
km/h
Gust
km/h
Spd
kts
Gust
kts
15/11:30pm 13.8 11.8 11.5 86 1.2 NNW 13 15 7 8 1016.3 1016.3 0.4
15/11:00pm 14.1 11.5 12.1 88 1.1 N 17 32 9 17 1016.2 1016.2 0.4
15/10:30pm 15.1 12.3 12.5 84 1.4 N 19 24 10 13 1016.3 1016.3 0.4
15/10:00pm 15.5 13.2 13.0 85 1.4 NNW 17 22 9 12 1016.3 1016.3 0.4
15/09:30pm 15.6 13.3 13.1 85 1.4 NNW 17 20 9 11 1016.5 1016.5 0.4
15/09:00pm 16.1 14.0 13.6 85 1.4 NNW 17 22 9 12 1016.6 1016.6 0.4
15/08:30pm 16.7 14.2 14.1 85 1.5 N 20 26 11 14 1016.6 1016.6 0.4
15/08:00pm 16.9 14.5 14.3 85 1.5 N 20 28 11 15 1016.6 1016.6 0.4
15/07:30pm 17.3 14.3 14.9 86 1.4 N 24 28 13 15 1016.4 1016.4 0.4
15/07:00pm 17.8 14.9 15.2 85 1.5 N 24 32 13 17 1016.5 1016.5 0.4
15/06:30pm 18.1 14.8 15.0 82 1.8 N 26 33 14 18 1016.4 1016.4 0.4
15/06:00pm 18.4 14.3 14.8 79 2.1 N 30 41 16 22 1016.1 1016.1 0.4
15/05:30pm 18.7 14.7 14.2 75 2.6 N 28 35 15 19 1015.7 1015.7 0.4
15/05:00pm 19.0 14.8 14.7 76 2.5 N 30 39 16 21 1015.5 1015.5 0.4
15/04:30pm 19.7 15.0 14.2 70 3.2 NNE 32 41 17 22 1015.4 1015.4 0.4
15/04:00pm 20.4 15.1 13.2 63 4.1 NNE 33 43 18 23 1015.3 1015.3 0.4
15/03:30pm 21.0 15.8 12.9 60 4.6 NNE 32 41 17 22 1015.5 1015.5 0.4
15/03:00pm 21.1 15.7 12.8 59 4.7 NNE 33 41 18 22 1015.8 1015.8 0.4
15/02:30pm 21.9 16.5 12.3 54 5.4 NNE 32 39 17 21 1016.2 1016.2 0.4
15/02:00pm 22.0 16.5 10.5 48 6.3 NNE 30 35 16 19 1016.7 1016.7 0.4
15/01:30pm 22.5 18.1 10.4 46 6.6 NNE 24 30 13 16 1017.2 1017.2 0.4
15/01:00pm 22.0 17.6 9.0 43 6.9 NNE 22 28 12 15 1018.0 1017.9 0.4
15/12:30pm 21.7 17.5 8.4 42 7.0 NNE 20 28 11 15 1018.8 1018.7 0.4
15/12:00pm 20.5 17.0 8.7 46 6.2 N 17 20 9 11 1019.4 1019.3 0.4
15/11:30am 20.3 16.9 9.3 49 5.8 N 17 19 9 10 1019.9 1019.8 0.2
15/11:00am 19.4 16.0 9.3 52 5.3 N 17 20 9 11 1020.6 1020.5 0.0
15/10:30am 18.9 15.8 8.9 52 5.2 N 15 19 8 10 1021.1 1021.0 0.0
15/10:00am 17.6 14.7 8.2 54 4.8 N 13 17 7 9 1021.4 1021.3 0.0
15/09:30am 16.2 13.7 8.3 59 4.0 NNW 11 15 6 8 1021.6 1021.5 0.0
15/09:00am 14.8 12.8 8.7 67 3.1 NNW 9 15 5 8 1021.8 1021.7 0.0
15/08:30am 13.0 12.9 9.4 79 1.8 CALM 0 0 0 0 1021.9 1021.8 0.0
15/08:00am 10.9 10.9 9.7 92 0.6 CALM 0 0 0 0 1021.8 1021.7 0.0
15/07:30am 9.4 8.4 7.5 88 0.9 SSW 2 7 1 4 1021.6 1021.5 0.0
15/07:00am 7.6 5.6 6.3 91 0.6 SW 6 7 3 4 1021.5 1021.4 0.0
15/06:30am 7.3 4.7 6.2 93 0.5 S 9 13 5 7 1021.2 1021.1 0.0
15/06:00am 6.7 4.5 6.0 95 0.3 SSW 7 9 4 5 1021.3 1021.2 0.0
15/05:30am 6.9 5.9 5.8 93 0.5 CALM 0 0 0 0 1021.3 1021.2 0.0
15/05:00am 6.6 5.7 6.2 97 0.2 CALM 0 0 0 0 1021.1 1021.0 0.0
15/04:30am 7.6 6.9 6.9 95 0.3 CALM 0 0 0 0 1021.0 1020.9 0.0
15/04:00am 7.3 6.5 6.6 95 0.3 CALM 0 0 0 0 1021.0 1020.9 0.0
15/03:30am 8.1 7.5 7.2 94 0.4 CALM 0 0 0 0 1020.9 1020.8 0.0
15/03:00am 8.3 7.7 7.2 93 0.5 CALM 0 0 0 0 1021.0 1020.9 0.0
15/02:30am 8.4 7.8 7.3 93 0.5 CALM 0 0 0 0 1021.1 1021.0 0.0
15/02:00am 8.7 8.1 7.6 93 0.5 CALM 0 0 0 0 1021.2 1021.1 0.0
15/01:30am 9.9 8.2 8.5 91 0.7 SW 7 9 4 5 1021.5 1021.4 0.0
15/01:00am 10.4 8.4 8.6 89 0.9 W 9 11 5 6 1021.9 1021.8 0.0
15/12:30am 10.5 9.2 9.1 91 0.7 WNW 6 7 3 4 1021.9 1021.8 0.0
15/12:00am 10.7 8.9 9.5 92 0.6 WNW 9 11 5 6 1022.0 1021.9 0.0
 
Date/Time
EST
Temp
°C
App
Temp
°C
Dew
Point
°C
Rel
Hum
%
Delta-T
°C
Wind Press
QNH
hPa
Press
MSL
hPa
Rain since
9am
mm
Dir  Spd
km/h
Gust
km/h
Spd
kts
Gust
kts
14/11:30pm 11.6 10.5 9.8 89 0.9 WNW 6 7 3 4 1022.1 1022.0 0.0
14/11:00pm 12.1 11.4 9.9 86 1.1 NNW 4 15 2 8 1022.5 1022.4 0.0
14/10:30pm 12.5 10.9 10.2 86 1.2 NNW 9 15 5 8 1022.7 1022.6 0.0
14/10:00pm 13.0 11.9 10.1 82 1.5 NW 6 7 3 4 1022.8 1022.7 0.0
14/09:30pm 13.6 11.9 9.9 78 1.9 NW 9 9 5 5 1022.7 1022.6 0.0
14/09:00pm 13.8 12.2 10.3 79 1.8 WNW 9 11 5 6 1022.8 1022.7 0.0
14/08:30pm 14.5 13.1 10.9 79 1.9 NW 9 15 5 8 1022.6 1022.5 0.0
14/08:00pm 13.9 11.9 11.6 86 1.2 N 13 20 7 11 1022.5 1022.4 0.0
14/07:30pm 15.3 12.8 12.2 82 1.7 N 17 20 9 11 1022.3 1022.2 0.0
14/07:00pm 15.2 12.5 11.7 79 1.9 N 17 19 9 10 1022.1 1022.0 0.0
14/06:30pm 15.7 12.9 11.4 75 2.3 N 17 20 9 11 1022.0 1021.9 0.0
14/06:00pm 15.2 12.7 11.1 76 2.2 N 15 19 8 10 1022.0 1021.9 0.0
14/05:30pm 16.1 13.0 10.4 69 3.0 N 17 22 9 12 1021.6 1021.5 0.0
14/05:00pm 17.4 14.4 10.7 65 3.6 NNE 17 19 9 10 1021.2 1021.1 0.0
14/04:30pm 18.6 14.9 9.5 55 4.8 NNE 19 22 10 12 1021.2 1021.1 0.0
14/04:00pm 18.9 15.1 8.9 52 5.2 NNE 19 26 10 14 1021.1 1021.0 0.0
14/03:30pm 19.6 15.2 7.6 45 6.1 NNE 20 26 11 14 1021.1 1021.0 0.0
14/03:00pm 20.1 15.6 6.8 42 6.7 NE 20 26 11 14 1021.3 1021.2 0.0
14/02:30pm 20.2 15.5 5.3 37 7.3 NNE 19 24 10 13 1021.5 1021.4 0.0
14/02:00pm 20.3 16.1 5.7 38 7.2 NNE 17 22 9 12 1021.6 1021.5 0.0
14/01:30pm 20.4 15.9 6.2 39 7.1 NNE 19 24 10 13 1021.8 1021.7 0.0
14/01:00pm 20.0 16.3 6.1 40 6.9 NNE 15 19 8 10 1022.2 1022.1 0.0
14/12:30pm 20.7 16.9 5.8 37 7.4 NNE 15 19 8 10 1022.9 1022.8 0.0
14/12:00pm 20.1 16.4 6.2 40 6.9 N 15 19 8 10 1023.3 1023.2 0.0
14/11:30am 20.4 16.8 5.0 36 7.5 N 13 17 7 9 1024.1 1024.0 0.0
14/11:00am 19.4 17.0 4.3 37 7.2 N 6 11 3 6 1024.8 1024.7 0.0
14/10:30am 18.5 14.9 3.1 36 7.1 SW 11 15 6 8 1025.2 1025.1 0.0
14/10:00am 17.4 12.2 2.3 36 6.8 SSW 19 24 10 13 1025.6 1025.5 0.0
14/09:30am 16.7 11.8 2.1 37 6.5 SSW 17 22 9 12 1025.5 1025.4 0.0
14/09:00am 15.0 9.5 2.0 41 5.7 SSW 20 26 11 14 1025.3 1025.2 0.0
14/08:30am 13.4 8.4 1.5 44 5.1 SSW 17 22 9 12 1025.3 1025.2 0.0
14/08:00am 11.1 6.9 1.8 52 3.9 SSW 13 15 7 8 1025.1 1025.0 0.0
14/07:30am 9.1 4.3 2.7 64 2.7 SSW 17 22 9 12 1025.1 1025.0 0.0
14/07:00am 7.0 2.9 2.4 72 1.9 SSW 13 19 7 10 1024.6 1024.5 0.0
14/06:30am 6.0 1.4 1.5 73 1.8 SSW 15 19 8 10 1024.3 1024.2 0.0
14/06:00am 6.1 1.5 1.6 73 1.8 SSW 15 19 8 10 1024.1 1024.0 0.0
14/05:30am 7.7 3.2 2.4 69 2.2 SSW 15 22 8 12 1023.6 1023.5 0.0
14/05:00am 7.5 3.9 2.7 71 2.0 SSW 11 15 6 8 1023.1 1023.0 0.0
14/04:30am 7.7 3.7 2.9 71 2.0 SSW 13 15 7 8 1023.1 1023.0 0.0
14/04:00am 7.9 4.3 3.2 72 2.0 SSW 11 13 6 7 1023.1 1023.0 0.0
14/03:30am 7.6 4.6 4.1 78 1.5 SW 9 11 5 6 1023.0 1022.9 0.0
14/03:00am 7.8 3.7 4.3 78 1.5 SSW 15 19 8 10 1023.2 1023.1 0.0
14/02:30am 8.4 4.4 4.8 78 1.6 SSW 15 19 8 10 1023.2 1023.1 0.0
14/02:00am 7.2 4.1 5.4 88 0.8 SSW 11 13 6 7 1023.3 1023.2 0.0
14/01:30am 8.2 5.5 5.5 83 1.2 SSW 9 11 5 6 1023.5 1023.4 0.0
14/01:00am 7.9 4.8 5.4 84 1.1 SSW 11 13 6 7 1023.5 1023.4 0.0
14/12:30am 8.3 5.9 5.1 80 1.4 WNW 7 9 4 5 1023.3 1023.2 0.0
14/12:00am 8.5 5.9 6.1 85 1.1 ESE 9 11 5 6 1023.5 1023.4 0.0
 
Date/Time
EST
Temp
°C
App
Temp
°C
Dew
Point
°C
Rel
Hum
%
Delta-T
°C
Wind Press
QNH
hPa
Press
MSL
hPa
Rain since
9am
mm
Dir  Spd
km/h
Gust
km/h
Spd
kts
Gust
kts
13/11:30pm 8.8 6.8 6.2 84 1.2 SSE 6 7 3 4 1023.7 1023.6 0.0
13/11:00pm 9.4 8.1 3.9 68 2.4 CALM 0 0 0 0 1023.6 1023.5 0.0
13/10:30pm 10.2 8.7 3.0 61 3.1 CALM 0 0 0 0 1023.6 1023.5 0.0

Latest Capital City Observations: Canberra | Sydney | Melbourne | Brisbane | Adelaide | Perth | Hobart | Darwin

Other Formats:

Comma delimited format used in spreadsheet applications
http://www.bom.gov.au/fwo/IDQ60901/IDQ60901.94578.axf

JavaScript Object Notation format (JSON) in row-major order
http://www.bom.gov.au/fwo/IDQ60901/IDQ60901.94578.json